sensor_id;sensor_type;location;lat;lon;timestamp;pressure;altitude;pressure_sealevel;temperature;humidity
73383;BME280;61600;48.126;11.542;2022-08-24T00:02:10;95836.06;;;18.74;55.84
73383;BME280;61600;48.126;11.542;2022-08-24T00:04:35;95824.09;;;18.70;55.52
73383;BME280;61600;48.126;11.542;2022-08-24T00:07:02;95823.28;;;18.70;55.41
73383;BME280;61600;48.126;11.542;2022-08-24T00:09:28;95832.00;;;18.72;55.97
73383;BME280;61600;48.126;11.542;2022-08-24T00:11:54;95828.97;;;18.65;55.50
73383;BME280;61600;48.126;11.542;2022-08-24T00:14:19;95820.84;;;18.68;55.15
73383;BME280;61600;48.126;11.542;2022-08-24T00:16:45;95824.78;;;18.67;55.31
73383;BME280;61600;48.126;11.542;2022-08-24T00:19:11;95823.34;;;18.61;55.08
73383;BME280;61600;48.126;11.542;2022-08-24T00:21:37;95818.00;;;18.56;54.97
73383;BME280;61600;48.126;11.542;2022-08-24T00:24:04;95823.84;;;18.55;55.09
73383;BME280;61600;48.126;11.542;2022-08-24T00:26:30;95817.53;;;18.45;55.13
73383;BME280;61600;48.126;11.542;2022-08-24T00:28:57;95818.22;;;18.42;55.10
73383;BME280;61600;48.126;11.542;2022-08-24T00:31:23;95823.38;;;18.44;53.98
73383;BME280;61600;48.126;11.542;2022-08-24T00:33:49;95824.03;;;18.41;53.42
73383;BME280;61600;48.126;11.542;2022-08-24T00:36:15;95823.41;;;18.35;53.60
73383;BME280;61600;48.126;11.542;2022-08-24T00:38:42;95833.16;;;18.33;53.49
73383;BME280;61600;48.126;11.542;2022-08-24T00:41:08;95824.44;;;18.22;53.96
73383;BME280;61600;48.126;11.542;2022-08-24T00:43:34;95827.53;;;18.12;54.85
73383;BME280;61600;48.126;11.542;2022-08-24T00:46:17;95831.50;;;17.94;55.05
73383;BME280;61600;48.126;11.542;2022-08-24T00:48:48;95825.78;;;18.08;54.27
73383;BME280;61600;48.126;11.542;2022-08-24T00:51:21;95825.44;;;18.09;54.35
73383;BME280;61600;48.126;11.542;2022-08-24T00:53:52;95820.66;;;17.80;55.64
73383;BME280;61600;48.126;11.542;2022-08-24T00:56:24;95828.13;;;17.37;56.01
73383;BME280;61600;48.126;11.542;2022-08-24T00:58:55;95824.56;;;17.45;57.06
73383;BME280;61600;48.126;11.542;2022-08-24T01:01:22;95824.88;;;17.52;57.04
73383;BME280;61600;48.126;11.542;2022-08-24T01:03:49;95821.31;;;17.52;56.90
73383;BME280;61600;48.126;11.542;2022-08-24T01:06:16;95820.03;;;17.66;56.07
73383;BME280;61600;48.126;11.542;2022-08-24T01:08:42;95824.25;;;17.55;56.17
73383;BME280;61600;48.126;11.542;2022-08-24T01:11:10;95827.63;;;17.35;56.44
73383;BME280;61600;48.126;11.542;2022-08-24T01:13:38;95826.50;;;17.36;57.21
73383;BME280;61600;48.126;11.542;2022-08-24T01:16:07;95826.03;;;17.34;57.37
73383;BME280;61600;48.126;11.542;2022-08-24T01:18:34;95822.44;;;17.51;57.27
73383;BME280;61600;48.126;11.542;2022-08-24T01:21:37;95823.91;;;17.48;56.87
73383;BME280;61600;48.126;11.542;2022-08-24T01:24:10;95832.47;;;17.46;56.97
73383;BME280;61600;48.126;11.542;2022-08-24T01:26:55;95827.78;;;17.47;56.80
73383;BME280;61600;48.126;11.542;2022-08-24T01:29:25;95826.84;;;17.60;55.94
73383;BME280;61600;48.126;11.542;2022-08-24T01:31:52;95819.53;;;17.56;56.11
73383;BME280;61600;48.126;11.542;2022-08-24T01:34:18;95822.44;;;17.51;56.40
73383;BME280;61600;48.126;11.542;2022-08-24T01:36:49;95821.16;;;17.39;57.58
73383;BME280;61600;48.126;11.542;2022-08-24T01:39:23;95827.47;;;17.31;58.06
73383;BME280;61600;48.126;11.542;2022-08-24T01:41:49;95819.84;;;17.28;57.76
73383;BME280;61600;48.126;11.542;2022-08-24T01:44:17;95820.84;;;17.32;57.77
73383;BME280;61600;48.126;11.542;2022-08-24T01:46:44;95825.22;;;17.33;57.89
73383;BME280;61600;48.126;11.542;2022-08-24T01:49:11;95816.78;;;17.38;57.47
73383;BME280;61600;48.126;11.542;2022-08-24T01:51:37;95821.47;;;17.46;56.89
73383;BME280;61600;48.126;11.542;2022-08-24T01:54:06;95820.00;;;17.49;57.11
73383;BME280;61600;48.126;11.542;2022-08-24T01:56:37;95818.41;;;17.48;57.08
73383;BME280;61600;48.126;11.542;2022-08-24T01:59:03;95818.72;;;17.46;57.61
73383;BME280;61600;48.126;11.542;2022-08-24T02:01:32;95813.38;;;17.50;57.72
73383;BME280;61600;48.126;11.542;2022-08-24T02:04:02;95812.09;;;17.39;57.59
73383;BME280;61600;48.126;11.542;2022-08-24T02:06:28;95813.41;;;17.41;57.77
73383;BME280;61600;48.126;11.542;2022-08-24T02:08:54;95811.94;;;17.44;57.70
73383;BME280;61600;48.126;11.542;2022-08-24T02:11:20;95816.47;;;17.48;57.21
73383;BME280;61600;48.126;11.542;2022-08-24T02:13:46;95821.63;;;17.50;57.17
73383;BME280;61600;48.126;11.542;2022-08-24T02:16:12;95824.06;;;17.43;57.45
73383;BME280;61600;48.126;11.542;2022-08-24T02:18:39;95817.78;;;17.34;57.77
73383;BME280;61600;48.126;11.542;2022-08-24T02:21:06;95825.38;;;17.37;57.14
73383;BME280;61600;48.126;11.542;2022-08-24T02:23:34;95815.66;;;17.39;56.77
73383;BME280;61600;48.126;11.542;2022-08-24T02:26:02;95820.50;;;17.42;57.13
73383;BME280;61600;48.126;11.542;2022-08-24T02:28:28;95819.38;;;17.35;57.91
73383;BME280;61600;48.126;11.542;2022-08-24T02:30:54;95825.88;;;17.30;57.76
73383;BME280;61600;48.126;11.542;2022-08-24T02:33:21;95815.81;;;17.26;57.60
73383;BME280;61600;48.126;11.542;2022-08-24T02:35:48;95810.16;;;17.22;57.66
73383;BME280;61600;48.126;11.542;2022-08-24T02:38:14;95828.25;;;17.15;58.39
73383;BME280;61600;48.126;11.542;2022-08-24T02:40:39;95820.50;;;17.08;58.38
73383;BME280;61600;48.126;11.542;2022-08-24T02:43:05;95826.63;;;16.88;58.82
73383;BME280;61600;48.126;11.542;2022-08-24T02:45:31;95832.25;;;16.74;59.20
73383;BME280;61600;48.126;11.542;2022-08-24T02:47:57;95828.81;;;16.69;59.35
73383;BME280;61600;48.126;11.542;2022-08-24T02:50:23;95825.78;;;16.70;59.83
73383;BME280;61600;48.126;11.542;2022-08-24T02:52:51;95825.78;;;16.70;61.04
73383;BME280;61600;48.126;11.542;2022-08-24T02:55:18;95826.59;;;16.71;61.23
73383;BME280;61600;48.126;11.542;2022-08-24T02:57:44;95831.28;;;16.70;61.29
73383;BME280;61600;48.126;11.542;2022-08-24T03:00:13;95828.06;;;16.77;61.17
73383;BME280;61600;48.126;11.542;2022-08-24T03:02:39;95825.81;;;16.87;61.23
73383;BME280;61600;48.126;11.542;2022-08-24T03:05:07;95830.03;;;16.85;61.12
73383;BME280;61600;48.126;11.542;2022-08-24T03:07:33;95829.50;;;16.83;61.27
73383;BME280;61600;48.126;11.542;2022-08-24T03:09:58;95817.19;;;16.72;61.79
73383;BME280;61600;48.126;11.542;2022-08-24T03:12:24;95822.22;;;16.70;61.75
73383;BME280;61600;48.126;11.542;2022-08-24T03:14:50;95824.16;;;16.69;61.58
73383;BME280;61600;48.126;11.542;2022-08-24T03:17:15;95827.19;;;16.68;60.86
73383;BME280;61600;48.126;11.542;2022-08-24T03:19:41;95825.59;;;16.67;61.53
73383;BME280;61600;48.126;11.542;2022-08-24T03:22:07;95821.72;;;16.59;61.35
73383;BME280;61600;48.126;11.542;2022-08-24T03:24:33;95827.50;;;16.58;61.31
73383;BME280;61600;48.126;11.542;2022-08-24T03:26:59;95818.28;;;16.54;61.00
73383;BME280;61600;48.126;11.542;2022-08-24T03:29:25;95819.53;;;16.47;60.66
73383;BME280;61600;48.126;11.542;2022-08-24T03:31:51;95819.88;;;16.46;60.77
73383;BME280;61600;48.126;11.542;2022-08-24T03:34:17;95827.75;;;16.47;60.72
73383;BME280;61600;48.126;11.542;2022-08-24T03:36:45;95829.84;;;16.42;61.45
73383;BME280;61600;48.126;11.542;2022-08-24T03:39:12;95830.31;;;16.35;61.28
73383;BME280;61600;48.126;11.542;2022-08-24T03:41:38;95835.47;;;16.28;60.94
73383;BME280;61600;48.126;11.542;2022-08-24T03:44:04;95834.94;;;16.26;61.08
73383;BME280;61600;48.126;11.542;2022-08-24T03:46:33;95834.66;;;16.28;61.44
73383;BME280;61600;48.126;11.542;2022-08-24T03:49:03;95839.63;;;16.26;61.89
73383;BME280;61600;48.126;11.542;2022-08-24T03:51:30;95845.44;;;16.24;61.84
73383;BME280;61600;48.126;11.542;2022-08-24T03:53:57;95845.28;;;16.21;61.85
73383;BME280;61600;48.126;11.542;2022-08-24T03:56:25;95837.66;;;16.18;61.54
73383;BME280;61600;48.126;11.542;2022-08-24T03:58:51;95836.34;;;16.15;62.09
73383;BME280;61600;48.126;11.542;2022-08-24T04:01:17;95842.34;;;16.17;61.91
73383;BME280;61600;48.126;11.542;2022-08-24T04:03:44;95836.53;;;16.19;61.43
73383;BME280;61600;48.126;11.542;2022-08-24T04:06:11;95840.25;;;16.14;61.39
73383;BME280;61600;48.126;11.542;2022-08-24T04:08:38;95835.56;;;16.15;61.66
73383;BME280;61600;48.126;11.542;2022-08-24T04:11:09;95836.50;;;16.10;62.23
73383;BME280;61600;48.126;11.542;2022-08-24T04:13:35;95838.44;;;16.10;62.38
73383;BME280;61600;48.126;11.542;2022-08-24T04:16:06;95842.66;;;16.16;62.01
73383;BME280;61600;48.126;11.542;2022-08-24T04:18:32;95852.03;;;16.15;61.90
73383;BME280;61600;48.126;11.542;2022-08-24T04:20:57;95848.47;;;16.14;62.32
73383;BME280;61600;48.126;11.542;2022-08-24T04:23:23;95838.59;;;16.13;62.45
73383;BME280;61600;48.126;11.542;2022-08-24T04:25:49;95841.06;;;16.15;62.03
73383;BME280;61600;48.126;11.542;2022-08-24T04:28:17;95846.00;;;16.04;62.55
73383;BME280;61600;48.126;11.542;2022-08-24T04:30:45;95840.34;;;16.09;62.27
73383;BME280;61600;48.126;11.542;2022-08-24T04:33:15;95835.50;;;16.06;62.31
73383;BME280;61600;48.126;11.542;2022-08-24T04:35:44;95842.56;;;15.98;63.12
73383;BME280;61600;48.126;11.542;2022-08-24T04:38:11;95837.41;;;15.97;62.79
73383;BME280;61600;48.126;11.542;2022-08-24T04:40:38;95832.41;;;15.99;62.35
73383;BME280;61600;48.126;11.542;2022-08-24T04:43:05;95839.50;;;16.00;62.20
73383;BME280;61600;48.126;11.542;2022-08-24T04:45:30;95843.75;;;16.06;61.46
73383;BME280;61600;48.126;11.542;2022-08-24T04:47:57;95841.81;;;16.07;61.39
73383;BME280;61600;48.126;11.542;2022-08-24T04:50:22;95840.19;;;16.06;61.58
73383;BME280;61600;48.126;11.542;2022-08-24T04:52:49;95841.63;;;16.03;62.09
73383;BME280;61600;48.126;11.542;2022-08-24T04:55:14;95840.81;;;16.03;61.74
73383;BME280;61600;48.126;11.542;2022-08-24T04:57:40;95843.09;;;16.09;61.28
73383;BME280;61600;48.126;11.542;2022-08-24T05:00:07;95853.16;;;16.14;60.75
73383;BME280;61600;48.126;11.542;2022-08-24T05:02:35;95859.94;;;16.16;60.76
73383;BME280;61600;48.126;11.542;2022-08-24T05:05:03;95854.63;;;16.20;60.55
73383;BME280;61600;48.126;11.542;2022-08-24T05:07:28;95854.78;;;16.15;61.41
73383;BME280;61600;48.126;11.542;2022-08-24T05:09:54;95865.56;;;16.11;61.14
73383;BME280;61600;48.126;11.542;2022-08-24T05:12:22;95863.94;;;16.10;61.70
73383;BME280;61600;48.126;11.542;2022-08-24T05:14:49;95854.78;;;16.15;61.46
73383;BME280;61600;48.126;11.542;2022-08-24T05:17:14;95860.81;;;16.25;61.13
73383;BME280;61600;48.126;11.542;2022-08-24T05:19:43;95861.09;;;16.24;60.74
73383;BME280;61600;48.126;11.542;2022-08-24T05:22:09;95870.97;;;16.25;61.10
73383;BME280;61600;48.126;11.542;2022-08-24T05:24:34;95870.63;;;16.26;61.27
73383;BME280;61600;48.126;11.542;2022-08-24T05:27:00;95878.06;;;16.26;60.51
73383;BME280;61600;48.126;11.542;2022-08-24T05:29:29;95877.88;;;16.22;60.79
73383;BME280;61600;48.126;11.542;2022-08-24T05:31:58;95881.16;;;16.33;60.28
73383;BME280;61600;48.126;11.542;2022-08-24T05:34:24;95875.06;;;16.36;60.07
73383;BME280;61600;48.126;11.542;2022-08-24T05:36:53;95881.38;;;16.45;59.39
73383;BME280;61600;48.126;11.542;2022-08-24T05:39:18;95892.06;;;16.46;59.13
73383;BME280;61600;48.126;11.542;2022-08-24T05:41:46;95882.03;;;16.50;59.19
73383;BME280;61600;48.126;11.542;2022-08-24T05:44:16;95884.38;;;16.57;59.39
73383;BME280;61600;48.126;11.542;2022-08-24T05:46:43;95894.84;;;16.55;59.94
73383;BME280;61600;48.126;11.542;2022-08-24T05:49:10;95893.38;;;16.49;59.98
73383;BME280;61600;48.126;11.542;2022-08-24T05:51:37;95887.28;;;16.61;59.71
73383;BME280;61600;48.126;11.542;2022-08-24T05:54:04;95896.50;;;16.65;59.26
73383;BME280;61600;48.126;11.542;2022-08-24T05:56:30;95890.72;;;16.66;58.98
73383;BME280;61600;48.126;11.542;2022-08-24T05:58:56;95900.94;;;16.74;58.29
73383;BME280;61600;48.126;11.542;2022-08-24T06:01:24;95909.97;;;16.75;58.38
73383;BME280;61600;48.126;11.542;2022-08-24T06:03:51;95899.13;;;16.78;58.51
73383;BME280;61600;48.126;11.542;2022-08-24T06:06:19;95904.97;;;16.85;57.60
73383;BME280;61600;48.126;11.542;2022-08-24T06:08:48;95904.53;;;16.92;57.43
73383;BME280;61600;48.126;11.542;2022-08-24T06:11:26;95902.53;;;16.75;57.50
73383;BME280;61600;48.126;11.542;2022-08-24T06:13:54;95906.69;;;16.64;58.11
73383;BME280;61600;48.126;11.542;2022-08-24T06:16:20;95899.78;;;16.75;58.37
73383;BME280;61600;48.126;11.542;2022-08-24T06:18:46;95898.00;;;16.71;57.75
73383;BME280;61600;48.126;11.542;2022-08-24T06:21:16;95901.09;;;16.78;57.52
73383;BME280;61600;48.126;11.542;2022-08-24T06:23:43;95907.59;;;16.90;57.43
73383;BME280;61600;48.126;11.542;2022-08-24T06:26:13;95910.22;;;16.95;57.31
73383;BME280;61600;48.126;11.542;2022-08-24T06:28:57;95909.09;;;17.05;57.33
73383;BME280;61600;48.126;11.542;2022-08-24T06:31:25;95900.41;;;17.20;57.19
73383;BME280;61600;48.126;11.542;2022-08-24T06:33:51;95900.09;;;17.30;56.26
73383;BME280;61600;48.126;11.542;2022-08-24T06:36:16;95906.75;;;17.46;54.21
73383;BME280;61600;48.126;11.542;2022-08-24T06:38:42;95899.16;;;17.61;54.09
73383;BME280;61600;48.126;11.542;2022-08-24T06:41:08;95902.72;;;17.70;53.99
73383;BME280;61600;48.126;11.542;2022-08-24T06:43:35;95899.81;;;17.75;54.41
73383;BME280;61600;48.126;11.542;2022-08-24T06:46:02;95888.19;;;17.69;53.93
73383;BME280;61600;48.126;11.542;2022-08-24T06:48:28;95895.47;;;17.65;54.94
73383;BME280;61600;48.126;11.542;2022-08-24T06:50:55;95897.84;;;17.84;54.65
73383;BME280;61600;48.126;11.542;2022-08-24T06:53:21;95905.66;;;17.90;54.16
73383;BME280;61600;48.126;11.542;2022-08-24T06:55:52;95901.91;;;17.95;54.15
73383;BME280;61600;48.126;11.542;2022-08-24T06:58:19;95907.25;;;18.00;54.25
73383;BME280;61600;48.126;11.542;2022-08-24T07:00:46;95899.97;;;18.04;54.44
73383;BME280;61600;48.126;11.542;2022-08-24T07:03:13;95917.75;;;18.15;54.09
73383;BME280;61600;48.126;11.542;2022-08-24T07:05:39;95907.06;;;18.22;53.55
73383;BME280;61600;48.126;11.542;2022-08-24T07:08:06;95908.81;;;18.27;53.51
73383;BME280;61600;48.126;11.542;2022-08-24T07:10:33;95911.06;;;18.42;52.49
73383;BME280;61600;48.126;11.542;2022-08-24T07:12:59;95910.72;;;18.52;51.51
73383;BME280;61600;48.126;11.542;2022-08-24T07:15:25;95912.00;;;18.46;51.53
73383;BME280;61600;48.126;11.542;2022-08-24T07:17:51;95913.28;;;18.48;51.52
73383;BME280;61600;48.126;11.542;2022-08-24T07:20:18;95913.47;;;18.61;52.31
73383;BME280;61600;48.126;11.542;2022-08-24T07:22:44;95916.53;;;18.68;52.15
73383;BME280;61600;48.126;11.542;2022-08-24T07:25:11;95912.22;;;18.79;52.24
73383;BME280;61600;48.126;11.542;2022-08-24T07:27:37;95912.53;;;18.86;51.70
73383;BME280;61600;48.126;11.542;2022-08-24T07:30:05;95911.69;;;18.94;51.21
73383;BME280;61600;48.126;11.542;2022-08-24T07:32:31;95910.84;;;19.02;51.26
73383;BME280;61600;48.126;11.542;2022-08-24T07:34:58;95908.22;;;19.06;50.47
73383;BME280;61600;48.126;11.542;2022-08-24T07:37:25;95910.13;;;19.14;50.74
73383;BME280;61600;48.126;11.542;2022-08-24T07:39:51;95912.50;;;19.24;51.21
73383;BME280;61600;48.126;11.542;2022-08-24T07:42:17;95909.41;;;19.25;50.85
73383;BME280;61600;48.126;11.542;2022-08-24T07:44:43;95911.78;;;19.35;51.34
73383;BME280;61600;48.126;11.542;2022-08-24T07:47:08;95916.47;;;19.43;51.12
73383;BME280;61600;48.126;11.542;2022-08-24T07:49:34;95913.31;;;19.54;50.77
73383;BME280;61600;48.126;11.542;2022-08-24T07:52:12;95914.06;;;19.63;50.14
73383;BME280;61600;48.126;11.542;2022-08-24T07:54:38;95916.16;;;19.66;49.97
73383;BME280;61600;48.126;11.542;2022-08-24T07:57:04;95911.09;;;19.68;50.78
73383;BME280;61600;48.126;11.542;2022-08-24T07:59:32;95918.38;;;19.72;49.61
73383;BME280;61600;48.126;11.542;2022-08-24T08:01:57;95914.59;;;19.77;50.63
73383;BME280;61600;48.126;11.542;2022-08-24T08:04:23;95914.38;;;19.82;49.37
73383;BME280;61600;48.126;11.542;2022-08-24T08:06:51;95918.91;;;19.86;49.98
73383;BME280;61600;48.126;11.542;2022-08-24T08:09:17;95908.59;;;19.95;49.37
73383;BME280;61600;48.126;11.542;2022-08-24T08:11:45;95899.16;;;19.97;49.74
73383;BME280;61600;48.126;11.542;2022-08-24T08:14:11;95897.34;;;20.01;50.93
73383;BME280;61600;48.126;11.542;2022-08-24T08:16:39;95898.19;;;20.13;49.53
73383;BME280;61600;48.126;11.542;2022-08-24T08:19:05;95896.34;;;20.17;48.80
73383;BME280;61600;48.126;11.542;2022-08-24T08:21:31;95902.00;;;20.21;48.94
73383;BME280;61600;48.126;11.542;2022-08-24T08:24:15;95902.28;;;20.28;48.41
73383;BME280;61600;48.126;11.542;2022-08-24T08:26:47;95906.25;;;20.39;48.05
73383;BME280;61600;48.126;11.542;2022-08-24T08:29:17;95907.75;;;20.49;47.19
73383;BME280;61600;48.126;11.542;2022-08-24T08:31:43;95913.78;;;20.51;48.22
73383;BME280;61600;48.126;11.542;2022-08-24T08:34:10;95914.84;;;20.58;48.39
73383;BME280;61600;48.126;11.542;2022-08-24T08:36:37;95912.66;;;20.64;47.65
73383;BME280;61600;48.126;11.542;2022-08-24T08:39:06;95910.81;;;20.68;47.16
73383;BME280;61600;48.126;11.542;2022-08-24T08:42:11;95910.56;;;20.73;47.01
73383;BME280;61600;48.126;11.542;2022-08-24T08:44:50;95912.19;;;20.74;47.16
73383;BME280;61600;48.126;11.542;2022-08-24T09:01:02;95915.69;;;21.07;48.30
73383;BME280;61600;48.126;11.542;2022-08-24T09:04:07;95906.72;;;21.22;48.21
73383;BME280;61600;48.126;11.542;2022-08-24T09:18:48;95903.91;;;21.59;48.20
73383;BME280;61600;48.126;11.542;2022-08-24T09:26:25;95900.53;;;21.77;47.95
73383;BME280;61600;48.126;11.542;2022-08-24T09:29:02;95894.13;;;21.89;48.10
73383;BME280;61600;48.126;11.542;2022-08-24T09:32:00;95895.66;;;21.99;48.06
73383;BME280;61600;48.126;11.542;2022-08-24T09:45:52;95894.50;;;22.43;47.95
73383;BME280;61600;48.126;11.542;2022-08-24T09:53:52;95882.59;;;22.70;47.47
73383;BME280;61600;48.126;11.542;2022-08-24T09:59:41;95877.91;;;22.59;46.99
73383;BME280;61600;48.126;11.542;2022-08-24T10:02:19;95881.66;;;22.66;46.11
73383;BME280;61600;48.126;11.542;2022-08-24T10:05:19;95868.38;;;22.87;46.80
73383;BME280;61600;48.126;11.542;2022-08-24T10:07:49;95873.53;;;23.05;47.21
73383;BME280;61600;48.126;11.542;2022-08-24T10:11:19;95865.22;;;23.20;46.14
73383;BME280;61600;48.126;11.542;2022-08-24T10:13:31;95864.59;;;23.43;46.41
73383;BME280;61600;48.126;11.542;2022-08-24T10:16:26;95865.78;;;23.61;45.57
73383;BME280;61600;48.126;11.542;2022-08-24T10:24:18;95870.72;;;24.06;44.17
73383;BME280;61600;48.126;11.542;2022-08-24T10:33:09;95862.66;;;24.39;44.07
73383;BME280;61600;48.126;11.542;2022-08-24T10:44:35;95863.00;;;25.02;43.45
73383;BME280;61600;48.126;11.542;2022-08-24T10:47:24;95866.31;;;25.08;43.16
73383;BME280;61600;48.126;11.542;2022-08-24T10:53:13;95853.53;;;25.29;43.68
73383;BME280;61600;48.126;11.542;2022-08-24T10:55:42;95858.50;;;25.43;43.80
73383;BME280;61600;48.126;11.542;2022-08-24T11:00:34;95858.00;;;25.60;42.52
73383;BME280;61600;48.126;11.542;2022-08-24T11:03:13;95857.84;;;25.79;42.46
73383;BME280;61600;48.126;11.542;2022-08-24T11:05:51;95853.53;;;25.82;41.71
73383;BME280;61600;48.126;11.542;2022-08-24T11:08:22;95851.09;;;26.10;41.10
73383;BME280;61600;48.126;11.542;2022-08-24T11:13:29;95851.66;;;25.93;43.02
73383;BME280;61600;48.126;11.542;2022-08-24T11:15:57;95849.25;;;25.92;43.27
73383;BME280;61600;48.126;11.542;2022-08-24T11:18:25;95855.63;;;25.62;43.73
73383;BME280;61600;48.126;11.542;2022-08-24T11:20:53;95850.50;;;25.64;44.24
73383;BME280;61600;48.126;11.542;2022-08-24T11:23:23;95847.56;;;25.83;43.24
73383;BME280;61600;48.126;11.542;2022-08-24T11:26:04;95850.75;;;26.15;41.59
73383;BME280;61600;48.126;11.542;2022-08-24T11:28:56;95852.22;;;26.39;41.69
73383;BME280;61600;48.126;11.542;2022-08-24T11:31:31;95839.78;;;26.29;41.53
73383;BME280;61600;48.126;11.542;2022-08-24T11:34:13;95848.22;;;26.37;41.09
73383;BME280;61600;48.126;11.542;2022-08-24T11:36:40;95847.47;;;26.06;42.28
73383;BME280;61600;48.126;11.542;2022-08-24T11:39:11;95842.16;;;26.27;41.84
73383;BME280;61600;48.126;11.542;2022-08-24T11:42:07;95840.63;;;26.70;40.70
73383;BME280;61600;48.126;11.542;2022-08-24T11:45:29;95836.41;;;26.87;40.14
73383;BME280;61600;48.126;11.542;2022-08-24T11:50:58;95844.13;;;27.52;38.23
73383;BME280;61600;48.126;11.542;2022-08-24T11:56:23;95841.06;;;27.74;38.72
73383;BME280;61600;48.126;11.542;2022-08-24T11:59:00;95831.59;;;27.93;38.97
73383;BME280;61600;48.126;11.542;2022-08-24T12:01:41;95837.97;;;27.87;39.25
73383;BME280;61600;48.126;11.542;2022-08-24T12:04:40;95842.38;;;27.98;38.99
73383;BME280;61600;48.126;11.542;2022-08-24T12:12:19;95849.13;;;27.87;38.12
73383;BME280;61600;48.126;11.542;2022-08-24T12:14:58;95844.81;;;28.00;38.24
73383;BME280;61600;48.126;11.542;2022-08-24T12:17:27;95839.47;;;27.73;38.46
73383;BME280;61600;48.126;11.542;2022-08-24T12:20:00;95843.50;;;27.25;40.65
73383;BME280;61600;48.126;11.542;2022-08-24T12:22:27;95840.97;;;27.57;39.44
73383;BME280;61600;48.126;11.542;2022-08-24T12:24:56;95847.09;;;27.25;39.99
73383;BME280;61600;48.126;11.542;2022-08-24T12:27:32;95835.94;;;27.25;40.21
73383;BME280;61600;48.126;11.542;2022-08-24T12:30:14;95836.81;;;27.37;40.39
73383;BME280;61600;48.126;11.542;2022-08-24T12:32:46;95834.09;;;26.96;41.59
73383;BME280;61600;48.126;11.542;2022-08-24T12:35:47;95834.53;;;26.98;40.94
73383;BME280;61600;48.126;11.542;2022-08-24T12:38:20;95823.28;;;27.42;40.86
73383;BME280;61600;48.126;11.542;2022-08-24T12:41:24;95819.03;;;27.62;39.84
73383;BME280;61600;48.126;11.542;2022-08-24T12:43:54;95825.94;;;27.83;39.97
73383;BME280;61600;48.126;11.542;2022-08-24T12:46:24;95824.75;;;27.87;38.71
73383;BME280;61600;48.126;11.542;2022-08-24T12:49:09;95812.22;;;27.60;39.82
73383;BME280;61600;48.126;11.542;2022-08-24T12:59:51;95828.31;;;27.19;40.62
73383;BME280;61600;48.126;11.542;2022-08-24T13:20:23;95819.53;;;29.32;36.81
73383;BME280;61600;48.126;11.542;2022-08-24T13:26:16;95819.78;;;30.05;34.80
73383;BME280;61600;48.126;11.542;2022-08-24T13:28:44;95825.50;;;29.69;35.43
73383;BME280;61600;48.126;11.542;2022-08-24T13:31:18;95822.94;;;30.21;34.51
73383;BME280;61600;48.126;11.542;2022-08-24T13:39:14;95817.22;;;31.08;32.67
73383;BME280;61600;48.126;11.542;2022-08-24T13:41:48;95803.19;;;31.04;32.98
73383;BME280;61600;48.126;11.542;2022-08-24T13:50:11;95803.03;;;31.26;31.97
73383;BME280;61600;48.126;11.542;2022-08-24T13:55:41;95798.88;;;30.16;34.21
73383;BME280;61600;48.126;11.542;2022-08-24T13:58:18;95793.28;;;30.89;33.19
73383;BME280;61600;48.126;11.542;2022-08-24T14:01:06;95796.09;;;31.37;31.96
73383;BME280;61600;48.126;11.542;2022-08-24T14:06:36;95797.13;;;32.29;31.08
73383;BME280;61600;48.126;11.542;2022-08-24T14:11:59;95797.75;;;32.43;30.56
73383;BME280;61600;48.126;11.542;2022-08-24T14:17:40;95800.75;;;32.29;30.83
73383;BME280;61600;48.126;11.542;2022-08-24T14:27:08;95790.75;;;30.47;34.14
73383;BME280;61600;48.126;11.542;2022-08-24T14:34:51;95789.53;;;30.44;35.72
73383;BME280;61600;48.126;11.542;2022-08-24T14:37:54;95785.47;;;29.55;36.71
73383;BME280;61600;48.126;11.542;2022-08-24T14:40:31;95782.09;;;30.06;35.78
73383;BME280;61600;48.126;11.542;2022-08-24T14:43:23;95774.13;;;30.70;34.54
73383;BME280;61600;48.126;11.542;2022-08-24T14:45:52;95783.59;;;31.42;32.53
73383;BME280;61600;48.126;11.542;2022-08-24T15:07:58;95782.19;;;33.15;30.52
73383;BME280;61600;48.126;11.542;2022-08-24T15:10:29;95783.09;;;33.55;30.39
73383;BME280;61600;48.126;11.542;2022-08-24T15:13:26;95778.28;;;32.83;31.15
73383;BME280;61600;48.126;11.542;2022-08-24T15:18:37;95775.75;;;30.71;34.73
73383;BME280;61600;48.126;11.542;2022-08-24T15:21:40;95785.38;;;29.90;35.74
73383;BME280;61600;48.126;11.542;2022-08-24T15:30:05;95766.41;;;32.38;31.58
73383;BME280;61600;48.126;11.542;2022-08-24T15:32:51;95770.22;;;32.54;30.77
73383;BME280;61600;48.126;11.542;2022-08-24T15:38:15;95770.47;;;32.03;31.70
73383;BME280;61600;48.126;11.542;2022-08-24T15:40:41;95766.38;;;32.72;30.40
73383;BME280;61600;48.126;11.542;2022-08-24T15:43:27;95765.91;;;34.13;29.26
73383;BME280;61600;48.126;11.542;2022-08-24T15:45:53;95760.91;;;35.08;27.15
73383;BME280;61600;48.126;11.542;2022-08-24T15:48:22;95771.13;;;34.50;28.09
73383;BME280;61600;48.126;11.542;2022-08-24T15:50:50;95768.75;;;32.73;30.34
73383;BME280;61600;48.126;11.542;2022-08-24T15:53:35;95774.81;;;32.41;30.87
73383;BME280;61600;48.126;11.542;2022-08-24T15:56:26;95773.69;;;32.35;31.32
73383;BME280;61600;48.126;11.542;2022-08-24T15:59:05;95774.16;;;31.96;32.03
73383;BME280;61600;48.126;11.542;2022-08-24T16:01:31;95776.56;;;32.32;30.86
73383;BME280;61600;48.126;11.542;2022-08-24T16:04:42;95773.41;;;33.33;29.83
73383;BME280;61600;48.126;11.542;2022-08-24T16:07:33;95778.63;;;33.81;29.64
73383;BME280;61600;48.126;11.542;2022-08-24T16:10:47;95769.41;;;33.07;29.52
73383;BME280;61600;48.126;11.542;2022-08-24T16:21:27;95773.53;;;34.87;26.84
73383;BME280;61600;48.126;11.542;2022-08-24T16:26:53;95773.38;;;33.99;28.07
73383;BME280;61600;48.126;11.542;2022-08-24T16:34:45;95758.75;;;34.44;26.88